sensor_id;sensor_type;location;lat;lon;timestamp;P1;durP1;ratioP1;P2;durP2;ratioP2
26319;SDS011;14024;52.226;5.200;2024-03-23T00:55:36;42.38;;;11.98;;
26319;SDS011;14024;52.226;5.200;2024-03-23T00:58:02;48.72;;;12.70;;
26319;SDS011;14024;52.226;5.200;2024-03-23T01:00:27;41.08;;;11.85;;
26319;SDS011;14024;52.226;5.200;2024-03-23T01:02:52;52.35;;;13.05;;
26319;SDS011;14024;52.226;5.200;2024-03-23T01:05:18;40.85;;;11.38;;
26319;SDS011;14024;52.226;5.200;2024-03-23T01:07:43;48.42;;;12.80;;
26319;SDS011;14024;52.226;5.200;2024-03-23T01:10:08;53.25;;;13.77;;
26319;SDS011;14024;52.226;5.200;2024-03-23T01:12:34;42.05;;;13.15;;
26319;SDS011;14024;52.226;5.200;2024-03-23T01:14:59;45.08;;;13.45;;
26319;SDS011;14024;52.226;5.200;2024-03-23T01:17:25;41.30;;;12.70;;
26319;SDS011;14024;52.226;5.200;2024-03-23T01:19:53;45.60;;;12.35;;
26319;SDS011;14024;52.226;5.200;2024-03-23T01:22:19;37.75;;;13.90;;
26319;SDS011;14024;52.226;5.200;2024-03-23T01:24:44;48.78;;;12.15;;
26319;SDS011;14024;52.226;5.200;2024-03-23T01:27:09;51.05;;;12.50;;
26319;SDS011;14024;52.226;5.200;2024-03-23T01:29:35;41.67;;;12.35;;
26319;SDS011;14024;52.226;5.200;2024-03-23T01:32:00;57.50;;;12.15;;
26319;SDS011;14024;52.226;5.200;2024-03-23T01:34:26;48.90;;;12.10;;
26319;SDS011;14024;52.226;5.200;2024-03-23T01:36:52;48.25;;;11.50;;
26319;SDS011;14024;52.226;5.200;2024-03-23T01:39:18;47.58;;;11.70;;
26319;SDS011;14024;52.226;5.200;2024-03-23T01:41:43;41.92;;;11.80;;
26319;SDS011;14024;52.226;5.200;2024-03-23T01:44:09;41.42;;;11.60;;
26319;SDS011;14024;52.226;5.200;2024-03-23T01:46:37;43.17;;;11.93;;
26319;SDS011;14024;52.226;5.200;2024-03-23T01:49:06;42.97;;;13.35;;
26319;SDS011;14024;52.226;5.200;2024-03-23T01:51:33;49.35;;;13.52;;
26319;SDS011;14024;52.226;5.200;2024-03-23T01:54:00;44.70;;;13.80;;
26319;SDS011;14024;52.226;5.200;2024-03-23T01:56:28;42.90;;;11.85;;
26319;SDS011;14024;52.226;5.200;2024-03-23T01:58:55;45.38;;;12.82;;
26319;SDS011;14024;52.226;5.200;2024-03-23T02:01:21;49.25;;;12.18;;
26319;SDS011;14024;52.226;5.200;2024-03-23T02:03:46;46.08;;;11.43;;
26319;SDS011;14024;52.226;5.200;2024-03-23T02:06:11;48.40;;;13.18;;
26319;SDS011;14024;52.226;5.200;2024-03-23T02:08:37;44.88;;;13.88;;
26319;SDS011;14024;52.226;5.200;2024-03-23T02:11:04;48.42;;;11.65;;
26319;SDS011;14024;52.226;5.200;2024-03-23T02:13:29;42.63;;;11.30;;
26319;SDS011;14024;52.226;5.200;2024-03-23T02:15:54;33.97;;;10.50;;
26319;SDS011;14024;52.226;5.200;2024-03-23T02:18:20;40.40;;;11.63;;
26319;SDS011;14024;52.226;5.200;2024-03-23T02:20:45;35.13;;;12.27;;
26319;SDS011;14024;52.226;5.200;2024-03-23T02:23:14;43.35;;;11.00;;
26319;SDS011;14024;52.226;5.200;2024-03-23T02:25:40;43.67;;;9.93;;
26319;SDS011;14024;52.226;5.200;2024-03-23T02:28:05;38.42;;;8.52;;
26319;SDS011;14024;52.226;5.200;2024-03-23T02:30:31;37.40;;;8.90;;
26319;SDS011;14024;52.226;5.200;2024-03-23T02:32:56;32.80;;;8.80;;
26319;SDS011;14024;52.226;5.200;2024-03-23T02:35:22;36.67;;;7.60;;
26319;SDS011;14024;52.226;5.200;2024-03-23T02:37:47;37.25;;;9.43;;
26319;SDS011;14024;52.226;5.200;2024-03-23T02:40:15;35.38;;;7.97;;
26319;SDS011;14024;52.226;5.200;2024-03-23T02:42:41;34.13;;;7.30;;
26319;SDS011;14024;52.226;5.200;2024-03-23T02:45:07;30.63;;;7.95;;
26319;SDS011;14024;52.226;5.200;2024-03-23T02:47:32;24.13;;;6.85;;
26319;SDS011;14024;52.226;5.200;2024-03-23T02:49:58;36.97;;;7.30;;
26319;SDS011;14024;52.226;5.200;2024-03-23T02:52:24;21.38;;;6.75;;
26319;SDS011;14024;52.226;5.200;2024-03-23T02:54:49;30.27;;;6.80;;
26319;SDS011;14024;52.226;5.200;2024-03-23T02:57:14;26.65;;;5.93;;
26319;SDS011;14024;52.226;5.200;2024-03-23T02:59:40;25.52;;;5.47;;
26319;SDS011;14024;52.226;5.200;2024-03-23T03:02:06;33.92;;;6.05;;
26319;SDS011;14024;52.226;5.200;2024-03-23T03:04:31;25.98;;;6.15;;
26319;SDS011;14024;52.226;5.200;2024-03-23T03:06:57;24.08;;;5.32;;
26319;SDS011;14024;52.226;5.200;2024-03-23T03:09:22;32.10;;;6.40;;
26319;SDS011;14024;52.226;5.200;2024-03-23T03:11:48;31.40;;;6.28;;
26319;SDS011;14024;52.226;5.200;2024-03-23T03:14:13;23.45;;;5.50;;
26319;SDS011;14024;52.226;5.200;2024-03-23T03:16:38;29.35;;;5.63;;
26319;SDS011;14024;52.226;5.200;2024-03-23T03:19:05;19.45;;;5.25;;
26319;SDS011;14024;52.226;5.200;2024-03-23T03:21:31;17.88;;;5.32;;
26319;SDS011;14024;52.226;5.200;2024-03-23T03:23:57;18.30;;;4.93;;
26319;SDS011;14024;52.226;5.200;2024-03-23T03:26:22;26.92;;;5.35;;
26319;SDS011;14024;52.226;5.200;2024-03-23T03:28:48;21.67;;;5.53;;
26319;SDS011;14024;52.226;5.200;2024-03-23T03:31:14;26.73;;;5.70;;
26319;SDS011;14024;52.226;5.200;2024-03-23T03:33:40;24.35;;;4.80;;
26319;SDS011;14024;52.226;5.200;2024-03-23T03:36:05;36.08;;;5.18;;
26319;SDS011;14024;52.226;5.200;2024-03-23T03:38:31;19.33;;;4.55;;
26319;SDS011;14024;52.226;5.200;2024-03-23T03:40:56;27.35;;;4.97;;
26319;SDS011;14024;52.226;5.200;2024-03-23T03:43:23;30.55;;;5.40;;
26319;SDS011;14024;52.226;5.200;2024-03-23T03:45:52;27.55;;;5.82;;
26319;SDS011;14024;52.226;5.200;2024-03-23T03:48:18;18.20;;;5.15;;
26319;SDS011;14024;52.226;5.200;2024-03-23T03:50:44;26.98;;;6.10;;
26319;SDS011;14024;52.226;5.200;2024-03-23T03:53:09;22.73;;;4.72;;
26319;SDS011;14024;52.226;5.200;2024-03-23T03:55:34;15.18;;;4.32;;
26319;SDS011;14024;52.226;5.200;2024-03-23T03:57:59;18.63;;;4.30;;
26319;SDS011;14024;52.226;5.200;2024-03-23T04:00:26;21.85;;;4.38;;
26319;SDS011;14024;52.226;5.200;2024-03-23T04:02:52;22.50;;;4.18;;
26319;SDS011;14024;52.226;5.200;2024-03-23T04:05:17;22.30;;;4.43;;
26319;SDS011;14024;52.226;5.200;2024-03-23T04:07:42;16.48;;;4.28;;
26319;SDS011;14024;52.226;5.200;2024-03-23T04:10:08;20.38;;;4.10;;
26319;SDS011;14024;52.226;5.200;2024-03-23T04:12:34;21.83;;;4.22;;
26319;SDS011;14024;52.226;5.200;2024-03-23T04:15:00;19.45;;;4.20;;
26319;SDS011;14024;52.226;5.200;2024-03-23T04:17:28;17.20;;;4.10;;
26319;SDS011;14024;52.226;5.200;2024-03-23T04:19:56;17.60;;;3.67;;
26319;SDS011;14024;52.226;5.200;2024-03-23T04:22:22;16.30;;;3.78;;
26319;SDS011;14024;52.226;5.200;2024-03-23T04:24:49;18.40;;;4.68;;
26319;SDS011;14024;52.226;5.200;2024-03-23T04:27:14;24.70;;;4.30;;
26319;SDS011;14024;52.226;5.200;2024-03-23T04:29:39;19.85;;;3.97;;
26319;SDS011;14024;52.226;5.200;2024-03-23T04:32:05;15.93;;;4.00;;
26319;SDS011;14024;52.226;5.200;2024-03-23T04:34:30;23.13;;;4.13;;
26319;SDS011;14024;52.226;5.200;2024-03-23T04:36:57;16.30;;;4.85;;
26319;SDS011;14024;52.226;5.200;2024-03-23T04:39:23;19.13;;;4.40;;
26319;SDS011;14024;52.226;5.200;2024-03-23T04:41:48;21.17;;;4.15;;
26319;SDS011;14024;52.226;5.200;2024-03-23T04:44:14;19.58;;;4.25;;
26319;SDS011;14024;52.226;5.200;2024-03-23T04:46:39;14.98;;;3.95;;
26319;SDS011;14024;52.226;5.200;2024-03-23T04:49:04;13.27;;;3.67;;
26319;SDS011;14024;52.226;5.200;2024-03-23T04:51:34;25.85;;;4.50;;
26319;SDS011;14024;52.226;5.200;2024-03-23T04:54:02;20.33;;;4.07;;
26319;SDS011;14024;52.226;5.200;2024-03-23T04:56:27;20.58;;;4.47;;
26319;SDS011;14024;52.226;5.200;2024-03-23T04:58:53;17.05;;;3.17;;
26319;SDS011;14024;52.226;5.200;2024-03-23T05:01:18;15.88;;;3.85;;
26319;SDS011;14024;52.226;5.200;2024-03-23T05:03:43;14.80;;;4.13;;
26319;SDS011;14024;52.226;5.200;2024-03-23T05:06:09;22.55;;;3.88;;
26319;SDS011;14024;52.226;5.200;2024-03-23T05:08:34;14.23;;;3.38;;
26319;SDS011;14024;52.226;5.200;2024-03-23T05:10:59;13.68;;;3.80;;
26319;SDS011;14024;52.226;5.200;2024-03-23T05:13:25;18.13;;;3.80;;
26319;SDS011;14024;52.226;5.200;2024-03-23T05:15:53;13.18;;;3.50;;
26319;SDS011;14024;52.226;5.200;2024-03-23T05:18:19;16.20;;;3.75;;
26319;SDS011;14024;52.226;5.200;2024-03-23T05:20:45;19.13;;;4.03;;
26319;SDS011;14024;52.226;5.200;2024-03-23T05:23:10;18.60;;;3.80;;
26319;SDS011;14024;52.226;5.200;2024-03-23T05:25:36;17.83;;;3.47;;
26319;SDS011;14024;52.226;5.200;2024-03-23T05:28:01;11.02;;;3.08;;
26319;SDS011;14024;52.226;5.200;2024-03-23T05:30:27;17.77;;;3.97;;
26319;SDS011;14024;52.226;5.200;2024-03-23T05:32:53;19.20;;;3.92;;
26319;SDS011;14024;52.226;5.200;2024-03-23T05:35:18;12.98;;;3.42;;
26319;SDS011;14024;52.226;5.200;2024-03-23T05:37:43;13.23;;;3.40;;
26319;SDS011;14024;52.226;5.200;2024-03-23T05:40:09;22.33;;;4.20;;
26319;SDS011;14024;52.226;5.200;2024-03-23T05:42:35;19.98;;;4.00;;
26319;SDS011;14024;52.226;5.200;2024-03-23T05:45:01;16.48;;;3.42;;
26319;SDS011;14024;52.226;5.200;2024-03-23T05:47:26;21.00;;;4.32;;
26319;SDS011;14024;52.226;5.200;2024-03-23T05:49:51;11.55;;;3.67;;
26319;SDS011;14024;52.226;5.200;2024-03-23T05:52:17;14.05;;;3.70;;
26319;SDS011;14024;52.226;5.200;2024-03-23T05:54:42;21.73;;;5.10;;
26319;SDS011;14024;52.226;5.200;2024-03-23T05:57:08;18.85;;;3.58;;
26319;SDS011;14024;52.226;5.200;2024-03-23T05:59:34;16.60;;;3.80;;
26319;SDS011;14024;52.226;5.200;2024-03-23T06:01:59;18.27;;;4.70;;
26319;SDS011;14024;52.226;5.200;2024-03-23T06:04:24;14.27;;;3.72;;
26319;SDS011;14024;52.226;5.200;2024-03-23T06:06:51;14.02;;;4.18;;
26319;SDS011;14024;52.226;5.200;2024-03-23T06:09:19;14.70;;;4.20;;
26319;SDS011;14024;52.226;5.200;2024-03-23T06:11:45;18.65;;;3.97;;
26319;SDS011;14024;52.226;5.200;2024-03-23T06:14:10;14.93;;;3.70;;
26319;SDS011;14024;52.226;5.200;2024-03-23T06:16:36;25.77;;;5.55;;
26319;SDS011;14024;52.226;5.200;2024-03-23T06:19:04;21.45;;;4.35;;
26319;SDS011;14024;52.226;5.200;2024-03-23T06:21:31;13.82;;;3.72;;
26319;SDS011;14024;52.226;5.200;2024-03-23T06:23:57;24.75;;;5.32;;
26319;SDS011;14024;52.226;5.200;2024-03-23T06:26:23;17.63;;;4.10;;
26319;SDS011;14024;52.226;5.200;2024-03-23T06:28:48;20.33;;;4.22;;
26319;SDS011;14024;52.226;5.200;2024-03-23T06:31:14;18.73;;;4.25;;
26319;SDS011;14024;52.226;5.200;2024-03-23T06:33:39;22.77;;;4.25;;
26319;SDS011;14024;52.226;5.200;2024-03-23T06:36:10;21.88;;;4.20;;
26319;SDS011;14024;52.226;5.200;2024-03-23T06:38:36;20.23;;;4.70;;
26319;SDS011;14024;52.226;5.200;2024-03-23T06:41:03;26.13;;;4.55;;
26319;SDS011;14024;52.226;5.200;2024-03-23T06:43:30;14.60;;;4.60;;
26319;SDS011;14024;52.226;5.200;2024-03-23T06:46:01;21.60;;;4.53;;
26319;SDS011;14024;52.226;5.200;2024-03-23T06:48:27;29.67;;;5.65;;
26319;SDS011;14024;52.226;5.200;2024-03-23T06:50:56;24.42;;;5.70;;
26319;SDS011;14024;52.226;5.200;2024-03-23T06:53:22;20.45;;;5.10;;
26319;SDS011;14024;52.226;5.200;2024-03-23T06:55:51;27.17;;;5.20;;
26319;SDS011;14024;52.226;5.200;2024-03-23T06:58:20;13.73;;;5.05;;
26319;SDS011;14024;52.226;5.200;2024-03-23T07:00:47;23.55;;;5.72;;
26319;SDS011;14024;52.226;5.200;2024-03-23T07:03:13;21.85;;;6.95;;
26319;SDS011;14024;52.226;5.200;2024-03-23T07:05:38;19.73;;;6.03;;
26319;SDS011;14024;52.226;5.200;2024-03-23T07:08:04;16.00;;;5.75;;
26319;SDS011;14024;52.226;5.200;2024-03-23T07:10:30;16.98;;;5.50;;
26319;SDS011;14024;52.226;5.200;2024-03-23T07:12:55;24.17;;;7.30;;
26319;SDS011;14024;52.226;5.200;2024-03-23T07:15:20;18.08;;;5.85;;
26319;SDS011;14024;52.226;5.200;2024-03-23T07:17:49;15.82;;;5.93;;
26319;SDS011;14024;52.226;5.200;2024-03-23T07:20:14;22.00;;;5.85;;
26319;SDS011;14024;52.226;5.200;2024-03-23T07:22:39;16.20;;;5.07;;
26319;SDS011;14024;52.226;5.200;2024-03-23T07:25:05;14.02;;;5.28;;
26319;SDS011;14024;52.226;5.200;2024-03-23T07:27:31;15.18;;;5.93;;
26319;SDS011;14024;52.226;5.200;2024-03-23T07:29:56;17.00;;;5.93;;
26319;SDS011;14024;52.226;5.200;2024-03-23T07:32:22;24.98;;;5.55;;
26319;SDS011;14024;52.226;5.200;2024-03-23T07:34:47;24.80;;;5.88;;
26319;SDS011;14024;52.226;5.200;2024-03-23T07:37:12;19.80;;;4.55;;
26319;SDS011;14024;52.226;5.200;2024-03-23T07:39:41;18.13;;;4.22;;
26319;SDS011;14024;52.226;5.200;2024-03-23T07:42:07;17.02;;;4.25;;
26319;SDS011;14024;52.226;5.200;2024-03-23T07:44:32;20.42;;;3.97;;
26319;SDS011;14024;52.226;5.200;2024-03-23T07:47:01;16.67;;;4.50;;
26319;SDS011;14024;52.226;5.200;2024-03-23T07:49:26;35.60;;;5.18;;
26319;SDS011;14024;52.226;5.200;2024-03-23T07:51:52;22.80;;;5.13;;
26319;SDS011;14024;52.226;5.200;2024-03-23T07:54:17;22.17;;;4.28;;
26319;SDS011;14024;52.226;5.200;2024-03-23T07:56:42;15.15;;;4.18;;
26319;SDS011;14024;52.226;5.200;2024-03-23T07:59:08;17.55;;;4.20;;
26319;SDS011;14024;52.226;5.200;2024-03-23T08:01:33;17.92;;;3.80;;
26319;SDS011;14024;52.226;5.200;2024-03-23T08:03:59;19.52;;;3.83;;
26319;SDS011;14024;52.226;5.200;2024-03-23T08:06:24;24.50;;;5.15;;
26319;SDS011;14024;52.226;5.200;2024-03-23T08:08:51;18.77;;;3.88;;
26319;SDS011;14024;52.226;5.200;2024-03-23T08:11:24;15.73;;;3.45;;
26319;SDS011;14024;52.226;5.200;2024-03-23T08:13:51;12.68;;;3.00;;
26319;SDS011;14024;52.226;5.200;2024-03-23T08:16:16;14.05;;;4.40;;
26319;SDS011;14024;52.226;5.200;2024-03-23T08:18:41;22.25;;;4.05;;
26319;SDS011;14024;52.226;5.200;2024-03-23T08:21:07;16.88;;;4.03;;
26319;SDS011;14024;52.226;5.200;2024-03-23T08:23:35;9.23;;;3.08;;
26319;SDS011;14024;52.226;5.200;2024-03-23T08:26:06;14.35;;;3.67;;
26319;SDS011;14024;52.226;5.200;2024-03-23T08:28:33;25.17;;;3.97;;
26319;SDS011;14024;52.226;5.200;2024-03-23T08:31:03;12.60;;;2.90;;
26319;SDS011;14024;52.226;5.200;2024-03-23T08:33:33;15.02;;;3.05;;
26319;SDS011;14024;52.226;5.200;2024-03-23T08:36:00;14.82;;;4.45;;
26319;SDS011;14024;52.226;5.200;2024-03-23T08:38:27;20.00;;;3.22;;
26319;SDS011;14024;52.226;5.200;2024-03-23T08:40:57;16.98;;;3.60;;
26319;SDS011;14024;52.226;5.200;2024-03-23T08:43:28;10.25;;;2.67;;
26319;SDS011;14024;52.226;5.200;2024-03-23T08:46:18;10.15;;;2.80;;
26319;SDS011;14024;52.226;5.200;2024-03-23T08:48:45;15.77;;;3.17;;
26319;SDS011;14024;52.226;5.200;2024-03-23T08:51:14;17.25;;;3.30;;
26319;SDS011;14024;52.226;5.200;2024-03-23T08:53:41;15.07;;;3.80;;
26319;SDS011;14024;52.226;5.200;2024-03-23T08:56:07;14.25;;;3.00;;
26319;SDS011;14024;52.226;5.200;2024-03-23T08:58:34;21.45;;;3.45;;
26319;SDS011;14024;52.226;5.200;2024-03-23T09:01:04;15.40;;;3.72;;
26319;SDS011;14024;52.226;5.200;2024-03-23T09:03:29;20.08;;;3.45;;
26319;SDS011;14024;52.226;5.200;2024-03-23T09:05:55;12.45;;;3.58;;
26319;SDS011;14024;52.226;5.200;2024-03-23T09:08:20;15.32;;;3.10;;
26319;SDS011;14024;52.226;5.200;2024-03-23T09:10:46;16.25;;;2.30;;
26319;SDS011;14024;52.226;5.200;2024-03-23T09:13:12;9.13;;;2.67;;
26319;SDS011;14024;52.226;5.200;2024-03-23T09:15:45;12.82;;;3.28;;
26319;SDS011;14024;52.226;5.200;2024-03-23T09:18:14;11.82;;;3.13;;
26319;SDS011;14024;52.226;5.200;2024-03-23T09:20:39;14.70;;;3.17;;
26319;SDS011;14024;52.226;5.200;2024-03-23T09:23:05;13.10;;;2.97;;
26319;SDS011;14024;52.226;5.200;2024-03-23T09:25:30;20.33;;;2.78;;
26319;SDS011;14024;52.226;5.200;2024-03-23T09:27:55;16.05;;;3.20;;
26319;SDS011;14024;52.226;5.200;2024-03-23T09:30:21;15.80;;;3.88;;
26319;SDS011;14024;52.226;5.200;2024-03-23T09:32:46;18.40;;;4.25;;
26319;SDS011;14024;52.226;5.200;2024-03-23T09:35:12;12.98;;;3.60;;
26319;SDS011;14024;52.226;5.200;2024-03-23T09:37:40;18.98;;;4.13;;
26319;SDS011;14024;52.226;5.200;2024-03-23T09:40:09;14.02;;;3.40;;
26319;SDS011;14024;52.226;5.200;2024-03-23T09:42:36;18.33;;;3.92;;
26319;SDS011;14024;52.226;5.200;2024-03-23T09:45:02;19.27;;;4.05;;
26319;SDS011;14024;52.226;5.200;2024-03-23T09:47:32;13.57;;;3.60;;
26319;SDS011;14024;52.226;5.200;2024-03-23T09:49:57;21.80;;;3.65;;
26319;SDS011;14024;52.226;5.200;2024-03-23T09:52:23;10.20;;;3.03;;
26319;SDS011;14024;52.226;5.200;2024-03-23T09:54:48;19.45;;;3.65;;
26319;SDS011;14024;52.226;5.200;2024-03-23T09:57:14;19.25;;;3.55;;
26319;SDS011;14024;52.226;5.200;2024-03-23T09:59:39;16.83;;;3.55;;
26319;SDS011;14024;52.226;5.200;2024-03-23T10:02:04;17.30;;;3.22;;
26319;SDS011;14024;52.226;5.200;2024-03-23T10:04:40;14.25;;;3.75;;
26319;SDS011;14024;52.226;5.200;2024-03-23T10:07:13;18.65;;;3.88;;
26319;SDS011;14024;52.226;5.200;2024-03-23T10:09:39;11.82;;;3.03;;
26319;SDS011;14024;52.226;5.200;2024-03-23T10:12:08;24.13;;;4.07;;
26319;SDS011;14024;52.226;5.200;2024-03-23T10:14:41;19.60;;;3.35;;
26319;SDS011;14024;52.226;5.200;2024-03-23T10:17:20;14.27;;;3.10;;
26319;SDS011;14024;52.226;5.200;2024-03-23T10:19:50;14.70;;;3.42;;
26319;SDS011;14024;52.226;5.200;2024-03-23T10:22:23;12.82;;;3.65;;
26319;SDS011;14024;52.226;5.200;2024-03-23T10:24:51;18.48;;;3.67;;
26319;SDS011;14024;52.226;5.200;2024-03-23T10:27:17;17.80;;;3.05;;
26319;SDS011;14024;52.226;5.200;2024-03-23T10:29:47;23.73;;;3.75;;
26319;SDS011;14024;52.226;5.200;2024-03-23T10:32:14;14.27;;;2.75;;
26319;SDS011;14024;52.226;5.200;2024-03-23T10:34:41;15.80;;;3.30;;
26319;SDS011;14024;52.226;5.200;2024-03-23T10:37:07;16.85;;;3.95;;
26319;SDS011;14024;52.226;5.200;2024-03-23T10:39:36;14.50;;;3.03;;
26319;SDS011;14024;52.226;5.200;2024-03-23T10:42:03;9.38;;;2.83;;
26319;SDS011;14024;52.226;5.200;2024-03-23T10:44:32;14.50;;;3.72;;
26319;SDS011;14024;52.226;5.200;2024-03-23T10:46:59;13.57;;;2.80;;
26319;SDS011;14024;52.226;5.200;2024-03-23T10:49:31;14.27;;;3.00;;
26319;SDS011;14024;52.226;5.200;2024-03-23T10:51:58;15.48;;;3.55;;
26319;SDS011;14024;52.226;5.200;2024-03-23T10:54:30;12.32;;;3.05;;
26319;SDS011;14024;52.226;5.200;2024-03-23T10:57:02;11.13;;;2.92;;
26319;SDS011;14024;52.226;5.200;2024-03-23T10:59:31;11.32;;;2.92;;
26319;SDS011;14024;52.226;5.200;2024-03-23T11:01:57;18.60;;;3.53;;
26319;SDS011;14024;52.226;5.200;2024-03-23T11:04:30;12.43;;;2.72;;
26319;SDS011;14024;52.226;5.200;2024-03-23T11:09:39;15.63;;;3.95;;
26319;SDS011;14024;52.226;5.200;2024-03-23T11:14:47;12.98;;;3.35;;
26319;SDS011;14024;52.226;5.200;2024-03-23T11:17:18;15.82;;;3.13;;
26319;SDS011;14024;52.226;5.200;2024-03-23T11:19:44;9.88;;;2.53;;
26319;SDS011;14024;52.226;5.200;2024-03-23T11:22:17;20.05;;;2.97;;
26319;SDS011;14024;52.226;5.200;2024-03-23T11:25:13;15.57;;;3.65;;
26319;SDS011;14024;52.226;5.200;2024-03-23T11:27:42;15.65;;;3.35;;
26319;SDS011;14024;52.226;5.200;2024-03-23T11:32:37;14.15;;;3.63;;
26319;SDS011;14024;52.226;5.200;2024-03-23T11:35:02;12.48;;;3.22;;
26319;SDS011;14024;52.226;5.200;2024-03-23T11:37:28;15.05;;;3.47;;
26319;SDS011;14024;52.226;5.200;2024-03-23T11:39:53;11.00;;;2.70;;
26319;SDS011;14024;52.226;5.200;2024-03-23T11:42:18;18.05;;;3.35;;
26319;SDS011;14024;52.226;5.200;2024-03-23T11:44:45;16.25;;;3.33;;
26319;SDS011;14024;52.226;5.200;2024-03-23T11:47:11;14.48;;;2.75;;
26319;SDS011;14024;52.226;5.200;2024-03-23T11:49:36;14.85;;;2.30;;
26319;SDS011;14024;52.226;5.200;2024-03-23T11:52:05;14.18;;;3.33;;
26319;SDS011;14024;52.226;5.200;2024-03-23T11:54:32;15.60;;;2.90;;
26319;SDS011;14024;52.226;5.200;2024-03-23T11:56:58;18.23;;;3.17;;
26319;SDS011;14024;52.226;5.200;2024-03-23T11:59:38;10.15;;;2.53;;
26319;SDS011;14024;52.226;5.200;2024-03-23T12:02:07;13.02;;;3.22;;
26319;SDS011;14024;52.226;5.200;2024-03-23T12:04:39;13.27;;;2.55;;
26319;SDS011;14024;52.226;5.200;2024-03-23T12:09:41;9.88;;;2.40;;
26319;SDS011;14024;52.226;5.200;2024-03-23T12:12:08;17.42;;;3.35;;
26319;SDS011;14024;52.226;5.200;2024-03-23T12:14:44;10.13;;;2.17;;
26319;SDS011;14024;52.226;5.200;2024-03-23T12:17:14;15.13;;;2.67;;
26319;SDS011;14024;52.226;5.200;2024-03-23T12:19:40;16.10;;;2.80;;
26319;SDS011;14024;52.226;5.200;2024-03-23T12:22:07;15.68;;;2.83;;
26319;SDS011;14024;52.226;5.200;2024-03-23T12:24:33;15.85;;;3.10;;
26319;SDS011;14024;52.226;5.200;2024-03-23T12:27:02;9.77;;;2.70;;
26319;SDS011;14024;52.226;5.200;2024-03-23T12:29:29;12.10;;;2.90;;
26319;SDS011;14024;52.226;5.200;2024-03-23T12:31:56;12.43;;;2.92;;
26319;SDS011;14024;52.226;5.200;2024-03-23T12:34:25;11.05;;;2.55;;
26319;SDS011;14024;52.226;5.200;2024-03-23T12:36:51;13.52;;;3.53;;
26319;SDS011;14024;52.226;5.200;2024-03-23T12:39:16;15.75;;;3.47;;
26319;SDS011;14024;52.226;5.200;2024-03-23T12:41:42;13.48;;;2.97;;
26319;SDS011;14024;52.226;5.200;2024-03-23T12:44:08;19.98;;;3.95;;
26319;SDS011;14024;52.226;5.200;2024-03-23T12:46:36;16.85;;;2.95;;
26319;SDS011;14024;52.226;5.200;2024-03-23T12:49:02;14.45;;;2.60;;
26319;SDS011;14024;52.226;5.200;2024-03-23T12:51:27;10.52;;;2.40;;
26319;SDS011;14024;52.226;5.200;2024-03-23T12:53:52;15.18;;;2.45;;
26319;SDS011;14024;52.226;5.200;2024-03-23T12:56:21;10.30;;;2.42;;
26319;SDS011;14024;52.226;5.200;2024-03-23T12:58:46;11.05;;;2.10;;
26319;SDS011;14024;52.226;5.200;2024-03-23T13:01:16;9.82;;;2.90;;
26319;SDS011;14024;52.226;5.200;2024-03-23T13:03:42;12.88;;;2.63;;
26319;SDS011;14024;52.226;5.200;2024-03-23T13:06:09;13.45;;;2.40;;
26319;SDS011;14024;52.226;5.200;2024-03-23T13:08:35;11.70;;;2.45;;
26319;SDS011;14024;52.226;5.200;2024-03-23T13:11:00;9.13;;;2.25;;
26319;SDS011;14024;52.226;5.200;2024-03-23T13:13:25;10.65;;;2.22;;
26319;SDS011;14024;52.226;5.200;2024-03-23T13:15:51;11.48;;;2.28;;
26319;SDS011;14024;52.226;5.200;2024-03-23T13:18:16;12.30;;;2.83;;
26319;SDS011;14024;52.226;5.200;2024-03-23T13:20:42;8.05;;;1.88;;
26319;SDS011;14024;52.226;5.200;2024-03-23T13:23:08;15.65;;;2.65;;
26319;SDS011;14024;52.226;5.200;2024-03-23T13:25:34;8.73;;;2.70;;
26319;SDS011;14024;52.226;5.200;2024-03-23T13:27:59;15.73;;;3.03;;
26319;SDS011;14024;52.226;5.200;2024-03-23T13:30:26;11.00;;;2.47;;
26319;SDS011;14024;52.226;5.200;2024-03-23T13:32:51;12.02;;;3.58;;
26319;SDS011;14024;52.226;5.200;2024-03-23T13:35:16;23.98;;;3.80;;
26319;SDS011;14024;52.226;5.200;2024-03-23T13:37:42;15.77;;;3.42;;
26319;SDS011;14024;52.226;5.200;2024-03-23T13:40:08;9.32;;;2.67;;
26319;SDS011;14024;52.226;5.200;2024-03-23T13:42:35;12.90;;;2.83;;
26319;SDS011;14024;52.226;5.200;2024-03-23T13:45:00;7.63;;;2.78;;
26319;SDS011;14024;52.226;5.200;2024-03-23T13:47:25;9.70;;;2.25;;
26319;SDS011;14024;52.226;5.200;2024-03-23T13:49:51;8.65;;;2.17;;
26319;SDS011;14024;52.226;5.200;2024-03-23T13:52:16;12.13;;;2.13;;
26319;SDS011;14024;52.226;5.200;2024-03-23T13:54:47;14.20;;;2.72;;
26319;SDS011;14024;52.226;5.200;2024-03-23T13:57:16;10.93;;;2.33;;
26319;SDS011;14024;52.226;5.200;2024-03-23T13:59:42;12.73;;;2.72;;
26319;SDS011;14024;52.226;5.200;2024-03-23T14:02:07;13.38;;;3.00;;
26319;SDS011;14024;52.226;5.200;2024-03-23T14:04:32;14.45;;;2.65;;
26319;SDS011;14024;52.226;5.200;2024-03-23T14:06:58;13.38;;;2.88;;
26319;SDS011;14024;52.226;5.200;2024-03-23T14:09:23;17.50;;;2.78;;
26319;SDS011;14024;52.226;5.200;2024-03-23T14:11:50;12.73;;;2.78;;
26319;SDS011;14024;52.226;5.200;2024-03-23T14:14:16;7.75;;;2.05;;
26319;SDS011;14024;52.226;5.200;2024-03-23T14:16:42;11.77;;;2.58;;
26319;SDS011;14024;52.226;5.200;2024-03-23T14:19:08;8.40;;;2.05;;
26319;SDS011;14024;52.226;5.200;2024-03-23T14:21:33;10.63;;;2.55;;
26319;SDS011;14024;52.226;5.200;2024-03-23T14:24:03;7.65;;;2.55;;
26319;SDS011;14024;52.226;5.200;2024-03-23T14:26:29;16.77;;;2.08;;
26319;SDS011;14024;52.226;5.200;2024-03-23T14:28:54;8.25;;;1.95;;
26319;SDS011;14024;52.226;5.200;2024-03-23T14:31:19;10.77;;;3.58;;
26319;SDS011;14024;52.226;5.200;2024-03-23T14:33:45;7.35;;;1.90;;
26319;SDS011;14024;52.226;5.200;2024-03-23T14:36:18;9.93;;;2.38;;
26319;SDS011;14024;52.226;5.200;2024-03-23T14:38:47;8.98;;;2.53;;
26319;SDS011;14024;52.226;5.200;2024-03-23T14:41:13;17.52;;;3.15;;
26319;SDS011;14024;52.226;5.200;2024-03-23T14:43:39;10.70;;;1.90;;
26319;SDS011;14024;52.226;5.200;2024-03-23T14:48:40;11.30;;;2.47;;
26319;SDS011;14024;52.226;5.200;2024-03-23T14:51:06;15.85;;;3.65;;
26319;SDS011;14024;52.226;5.200;2024-03-23T14:53:33;12.40;;;3.53;;
26319;SDS011;14024;52.226;5.200;2024-03-23T14:56:00;14.80;;;3.28;;
26319;SDS011;14024;52.226;5.200;2024-03-23T14:58:27;18.20;;;5.68;;
26319;SDS011;14024;52.226;5.200;2024-03-23T15:00:52;10.95;;;2.58;;
26319;SDS011;14024;52.226;5.200;2024-03-23T15:03:18;17.98;;;2.65;;
26319;SDS011;14024;52.226;5.200;2024-03-23T15:05:57;15.13;;;4.60;;
26319;SDS011;14024;52.226;5.200;2024-03-23T15:08:24;12.00;;;2.60;;
26319;SDS011;14024;52.226;5.200;2024-03-23T15:10:49;11.02;;;2.40;;
26319;SDS011;14024;52.226;5.200;2024-03-23T15:13:15;13.25;;;2.45;;
26319;SDS011;14024;52.226;5.200;2024-03-23T15:15:41;15.40;;;2.80;;
26319;SDS011;14024;52.226;5.200;2024-03-23T15:18:09;9.55;;;2.25;;
26319;SDS011;14024;52.226;5.200;2024-03-23T15:20:39;12.88;;;2.75;;
26319;SDS011;14024;52.226;5.200;2024-03-23T15:23:05;9.07;;;2.30;;
26319;SDS011;14024;52.226;5.200;2024-03-23T15:25:31;15.70;;;2.95;;
26319;SDS011;14024;52.226;5.200;2024-03-23T15:27:57;12.10;;;2.83;;
26319;SDS011;14024;52.226;5.200;2024-03-23T15:30:24;13.02;;;2.90;;
26319;SDS011;14024;52.226;5.200;2024-03-23T15:32:50;15.70;;;2.63;;
26319;SDS011;14024;52.226;5.200;2024-03-23T15:35:15;18.27;;;2.88;;
26319;SDS011;14024;52.226;5.200;2024-03-23T15:37:40;7.28;;;2.35;;